sensor_id;sensor_type;location;lat;lon;timestamp;P1;durP1;ratioP1;P2;durP2;ratioP2
72924;SDS011;61070;50.794;7.054;2022-12-24T00:02:16;21.52;;;3.40;;
72924;SDS011;61070;50.794;7.054;2022-12-24T00:04:41;22.95;;;4.35;;
72924;SDS011;61070;50.794;7.054;2022-12-24T00:07:07;25.42;;;4.25;;
72924;SDS011;61070;50.794;7.054;2022-12-24T00:09:32;25.77;;;3.33;;
72924;SDS011;61070;50.794;7.054;2022-12-24T00:11:57;22.08;;;3.92;;
72924;SDS011;61070;50.794;7.054;2022-12-24T00:14:23;24.20;;;4.47;;
72924;SDS011;61070;50.794;7.054;2022-12-24T00:16:49;30.83;;;3.95;;
72924;SDS011;61070;50.794;7.054;2022-12-24T00:19:14;24.60;;;4.15;;
72924;SDS011;61070;50.794;7.054;2022-12-24T00:21:39;27.13;;;4.63;;
72924;SDS011;61070;50.794;7.054;2022-12-24T00:24:05;25.10;;;3.78;;
72924;SDS011;61070;50.794;7.054;2022-12-24T00:26:31;22.25;;;3.83;;
72924;SDS011;61070;50.794;7.054;2022-12-24T00:28:57;21.20;;;4.18;;
72924;SDS011;61070;50.794;7.054;2022-12-24T00:31:23;32.40;;;4.63;;
72924;SDS011;61070;50.794;7.054;2022-12-24T00:33:48;32.67;;;3.97;;
72924;SDS011;61070;50.794;7.054;2022-12-24T00:36:14;21.27;;;3.70;;
72924;SDS011;61070;50.794;7.054;2022-12-24T00:38:40;19.92;;;4.18;;
72924;SDS011;61070;50.794;7.054;2022-12-24T00:41:06;32.70;;;4.93;;
72924;SDS011;61070;50.794;7.054;2022-12-24T00:43:48;26.13;;;3.92;;
72924;SDS011;61070;50.794;7.054;2022-12-24T00:46:24;22.13;;;3.72;;
72924;SDS011;61070;50.794;7.054;2022-12-24T00:48:52;25.23;;;3.00;;
72924;SDS011;61070;50.794;7.054;2022-12-24T00:51:18;19.65;;;3.53;;
72924;SDS011;61070;50.794;7.054;2022-12-24T00:53:44;25.40;;;3.63;;
72924;SDS011;61070;50.794;7.054;2022-12-24T00:56:09;24.98;;;3.50;;
72924;SDS011;61070;50.794;7.054;2022-12-24T00:58:35;22.67;;;3.17;;
72924;SDS011;61070;50.794;7.054;2022-12-24T01:01:00;21.77;;;3.20;;
72924;SDS011;61070;50.794;7.054;2022-12-24T01:03:26;22.05;;;3.35;;
72924;SDS011;61070;50.794;7.054;2022-12-24T01:06:05;22.08;;;3.88;;
72924;SDS011;61070;50.794;7.054;2022-12-24T01:08:35;20.40;;;2.92;;
72924;SDS011;61070;50.794;7.054;2022-12-24T01:11:01;26.70;;;4.00;;
72924;SDS011;61070;50.794;7.054;2022-12-24T01:13:27;37.28;;;4.20;;
72924;SDS011;61070;50.794;7.054;2022-12-24T01:15:52;26.20;;;3.60;;
72924;SDS011;61070;50.794;7.054;2022-12-24T01:18:18;25.52;;;3.13;;
72924;SDS011;61070;50.794;7.054;2022-12-24T01:20:43;28.85;;;3.33;;
72924;SDS011;61070;50.794;7.054;2022-12-24T01:23:09;16.55;;;3.25;;
72924;SDS011;61070;50.794;7.054;2022-12-24T01:25:36;18.08;;;3.80;;
72924;SDS011;61070;50.794;7.054;2022-12-24T01:28:04;17.55;;;3.60;;
72924;SDS011;61070;50.794;7.054;2022-12-24T01:30:30;34.95;;;5.75;;
72924;SDS011;61070;50.794;7.054;2022-12-24T01:32:56;15.25;;;3.55;;
72924;SDS011;61070;50.794;7.054;2022-12-24T01:35:22;23.02;;;4.32;;
72924;SDS011;61070;50.794;7.054;2022-12-24T01:37:47;31.35;;;3.80;;
72924;SDS011;61070;50.794;7.054;2022-12-24T01:40:14;23.75;;;4.05;;
72924;SDS011;61070;50.794;7.054;2022-12-24T01:42:59;22.20;;;3.30;;
72924;SDS011;61070;50.794;7.054;2022-12-24T01:48:20;20.25;;;4.53;;
72924;SDS011;61070;50.794;7.054;2022-12-24T01:50:50;20.33;;;3.35;;
72924;SDS011;61070;50.794;7.054;2022-12-24T01:53:20;18.75;;;3.42;;
72924;SDS011;61070;50.794;7.054;2022-12-24T01:55:46;26.92;;;3.55;;
72924;SDS011;61070;50.794;7.054;2022-12-24T01:58:13;24.15;;;3.60;;
72924;SDS011;61070;50.794;7.054;2022-12-24T02:00:41;27.17;;;4.28;;
72924;SDS011;61070;50.794;7.054;2022-12-24T02:03:07;19.67;;;3.03;;
72924;SDS011;61070;50.794;7.054;2022-12-24T02:05:47;22.50;;;3.17;;
72924;SDS011;61070;50.794;7.054;2022-12-24T02:08:15;24.02;;;3.03;;
72924;SDS011;61070;50.794;7.054;2022-12-24T02:10:42;20.50;;;3.58;;
72924;SDS011;61070;50.794;7.054;2022-12-24T02:13:08;22.75;;;3.17;;
72924;SDS011;61070;50.794;7.054;2022-12-24T02:16:22;21.48;;;3.45;;
72924;SDS011;61070;50.794;7.054;2022-12-24T02:21:44;19.90;;;3.38;;
72924;SDS011;61070;50.794;7.054;2022-12-24T02:24:14;22.05;;;3.10;;
72924;SDS011;61070;50.794;7.054;2022-12-24T02:27:07;17.80;;;3.10;;
72924;SDS011;61070;50.794;7.054;2022-12-24T02:32:29;18.83;;;2.97;;
72924;SDS011;61070;50.794;7.054;2022-12-24T02:37:50;23.08;;;3.40;;
72924;SDS011;61070;50.794;7.054;2022-12-24T02:42:59;20.33;;;3.22;;
72924;SDS011;61070;50.794;7.054;2022-12-24T02:45:30;25.95;;;3.60;;
72924;SDS011;61070;50.794;7.054;2022-12-24T02:47:57;18.38;;;2.97;;
72924;SDS011;61070;50.794;7.054;2022-12-24T02:50:23;17.98;;;3.38;;
72924;SDS011;61070;50.794;7.054;2022-12-24T02:52:49;18.77;;;3.08;;
72924;SDS011;61070;50.794;7.054;2022-12-24T02:55:22;18.55;;;3.55;;
72924;SDS011;61070;50.794;7.054;2022-12-24T03:03:30;21.02;;;3.67;;
72924;SDS011;61070;50.794;7.054;2022-12-24T03:13:51;13.77;;;4.10;;
72924;SDS011;61070;50.794;7.054;2022-12-24T03:16:22;27.42;;;3.53;;
72924;SDS011;61070;50.794;7.054;2022-12-24T03:18:51;29.75;;;3.60;;
72924;SDS011;61070;50.794;7.054;2022-12-24T03:23:51;20.27;;;4.63;;
72924;SDS011;61070;50.794;7.054;2022-12-24T03:26:17;19.50;;;2.88;;
72924;SDS011;61070;50.794;7.054;2022-12-24T03:28:43;18.70;;;2.53;;
72924;SDS011;61070;50.794;7.054;2022-12-24T03:31:09;17.52;;;2.78;;
72924;SDS011;61070;50.794;7.054;2022-12-24T03:33:35;19.92;;;2.45;;
72924;SDS011;61070;50.794;7.054;2022-12-24T03:36:01;15.13;;;2.03;;
72924;SDS011;61070;50.794;7.054;2022-12-24T03:38:27;17.23;;;2.60;;
72924;SDS011;61070;50.794;7.054;2022-12-24T03:40:52;17.00;;;2.05;;
72924;SDS011;61070;50.794;7.054;2022-12-24T03:43:18;9.82;;;1.40;;
72924;SDS011;61070;50.794;7.054;2022-12-24T03:45:43;15.00;;;2.28;;
72924;SDS011;61070;50.794;7.054;2022-12-24T03:48:09;11.43;;;1.95;;
72924;SDS011;61070;50.794;7.054;2022-12-24T03:50:34;13.32;;;2.00;;
72924;SDS011;61070;50.794;7.054;2022-12-24T03:52:59;12.45;;;2.00;;
72924;SDS011;61070;50.794;7.054;2022-12-24T03:55:25;11.05;;;2.30;;
72924;SDS011;61070;50.794;7.054;2022-12-24T03:57:50;9.90;;;1.98;;
72924;SDS011;61070;50.794;7.054;2022-12-24T04:00:15;22.05;;;2.78;;
72924;SDS011;61070;50.794;7.054;2022-12-24T04:02:41;19.98;;;2.33;;
72924;SDS011;61070;50.794;7.054;2022-12-24T04:05:07;10.18;;;2.10;;
72924;SDS011;61070;50.794;7.054;2022-12-24T04:07:32;11.38;;;2.08;;
72924;SDS011;61070;50.794;7.054;2022-12-24T04:09:58;12.95;;;2.20;;
72924;SDS011;61070;50.794;7.054;2022-12-24T04:12:23;8.02;;;1.67;;
72924;SDS011;61070;50.794;7.054;2022-12-24T04:14:49;7.88;;;1.80;;
72924;SDS011;61070;50.794;7.054;2022-12-24T04:17:15;15.48;;;1.88;;
72924;SDS011;61070;50.794;7.054;2022-12-24T04:19:40;12.70;;;2.03;;
72924;SDS011;61070;50.794;7.054;2022-12-24T04:22:05;10.00;;;2.28;;
72924;SDS011;61070;50.794;7.054;2022-12-24T04:24:31;2.63;;;1.10;;
72924;SDS011;61070;50.794;7.054;2022-12-24T04:26:56;9.98;;;1.90;;
72924;SDS011;61070;50.794;7.054;2022-12-24T04:29:21;4.85;;;1.05;;
72924;SDS011;61070;50.794;7.054;2022-12-24T04:31:47;8.15;;;1.13;;
72924;SDS011;61070;50.794;7.054;2022-12-24T04:34:12;6.53;;;1.35;;
72924;SDS011;61070;50.794;7.054;2022-12-24T04:36:37;7.60;;;1.20;;
72924;SDS011;61070;50.794;7.054;2022-12-24T04:39:02;5.97;;;1.20;;
72924;SDS011;61070;50.794;7.054;2022-12-24T04:41:28;7.65;;;0.95;;
72924;SDS011;61070;50.794;7.054;2022-12-24T04:43:53;3.63;;;1.10;;
72924;SDS011;61070;50.794;7.054;2022-12-24T04:46:20;3.42;;;0.63;;
72924;SDS011;61070;50.794;7.054;2022-12-24T04:48:48;6.03;;;1.10;;
72924;SDS011;61070;50.794;7.054;2022-12-24T04:51:15;5.57;;;0.80;;
72924;SDS011;61070;50.794;7.054;2022-12-24T04:53:41;7.50;;;1.15;;
72924;SDS011;61070;50.794;7.054;2022-12-24T04:56:14;4.07;;;0.80;;
72924;SDS011;61070;50.794;7.054;2022-12-24T04:58:41;5.38;;;1.17;;
72924;SDS011;61070;50.794;7.054;2022-12-24T05:01:07;4.30;;;0.90;;
72924;SDS011;61070;50.794;7.054;2022-12-24T05:03:36;9.88;;;1.05;;
72924;SDS011;61070;50.794;7.054;2022-12-24T05:06:02;3.70;;;1.17;;
72924;SDS011;61070;50.794;7.054;2022-12-24T05:08:29;7.85;;;0.85;;
72924;SDS011;61070;50.794;7.054;2022-12-24T05:10:55;4.10;;;0.80;;
72924;SDS011;61070;50.794;7.054;2022-12-24T05:13:21;4.97;;;0.73;;
72924;SDS011;61070;50.794;7.054;2022-12-24T05:15:46;5.03;;;0.98;;
72924;SDS011;61070;50.794;7.054;2022-12-24T05:18:11;9.43;;;0.85;;
72924;SDS011;61070;50.794;7.054;2022-12-24T05:20:37;8.15;;;1.20;;
72924;SDS011;61070;50.794;7.054;2022-12-24T05:23:04;3.00;;;1.10;;
72924;SDS011;61070;50.794;7.054;2022-12-24T05:25:48;4.63;;;1.15;;
72924;SDS011;61070;50.794;7.054;2022-12-24T05:28:32;5.65;;;1.10;;
72924;SDS011;61070;50.794;7.054;2022-12-24T05:30:57;5.07;;;1.13;;
72924;SDS011;61070;50.794;7.054;2022-12-24T05:33:22;6.95;;;1.63;;
72924;SDS011;61070;50.794;7.054;2022-12-24T05:35:49;7.43;;;1.42;;
72924;SDS011;61070;50.794;7.054;2022-12-24T05:38:15;9.25;;;1.35;;
72924;SDS011;61070;50.794;7.054;2022-12-24T05:40:41;7.65;;;1.70;;
72924;SDS011;61070;50.794;7.054;2022-12-24T05:43:06;11.63;;;1.90;;
72924;SDS011;61070;50.794;7.054;2022-12-24T05:45:31;5.05;;;1.40;;
72924;SDS011;61070;50.794;7.054;2022-12-24T05:47:56;6.85;;;1.17;;
72924;SDS011;61070;50.794;7.054;2022-12-24T05:50:22;7.55;;;1.27;;
72924;SDS011;61070;50.794;7.054;2022-12-24T05:52:47;8.88;;;1.85;;
72924;SDS011;61070;50.794;7.054;2022-12-24T05:55:12;7.82;;;1.58;;
72924;SDS011;61070;50.794;7.054;2022-12-24T05:57:38;11.25;;;2.17;;
72924;SDS011;61070;50.794;7.054;2022-12-24T06:00:04;11.43;;;1.92;;
72924;SDS011;61070;50.794;7.054;2022-12-24T06:02:30;10.98;;;1.40;;
72924;SDS011;61070;50.794;7.054;2022-12-24T06:04:55;16.00;;;2.33;;
72924;SDS011;61070;50.794;7.054;2022-12-24T06:07:20;10.60;;;2.22;;
72924;SDS011;61070;50.794;7.054;2022-12-24T06:09:46;13.10;;;1.83;;
72924;SDS011;61070;50.794;7.054;2022-12-24T06:12:11;8.20;;;2.88;;
72924;SDS011;61070;50.794;7.054;2022-12-24T06:14:36;7.38;;;1.92;;
72924;SDS011;61070;50.794;7.054;2022-12-24T06:17:02;7.90;;;1.58;;
72924;SDS011;61070;50.794;7.054;2022-12-24T06:19:27;15.25;;;2.17;;
72924;SDS011;61070;50.794;7.054;2022-12-24T06:21:52;10.32;;;2.05;;
72924;SDS011;61070;50.794;7.054;2022-12-24T06:24:17;15.52;;;3.25;;
72924;SDS011;61070;50.794;7.054;2022-12-24T06:26:43;12.50;;;2.05;;
72924;SDS011;61070;50.794;7.054;2022-12-24T06:29:09;12.82;;;1.80;;
72924;SDS011;61070;50.794;7.054;2022-12-24T06:31:35;9.88;;;2.40;;
72924;SDS011;61070;50.794;7.054;2022-12-24T06:34:01;8.20;;;1.92;;
72924;SDS011;61070;50.794;7.054;2022-12-24T06:36:26;10.32;;;2.10;;
72924;SDS011;61070;50.794;7.054;2022-12-24T06:38:52;8.60;;;1.52;;
72924;SDS011;61070;50.794;7.054;2022-12-24T06:41:18;7.10;;;1.55;;
72924;SDS011;61070;50.794;7.054;2022-12-24T06:43:44;11.25;;;2.25;;
72924;SDS011;61070;50.794;7.054;2022-12-24T06:46:11;8.88;;;2.08;;
72924;SDS011;61070;50.794;7.054;2022-12-24T06:48:37;6.35;;;2.33;;
72924;SDS011;61070;50.794;7.054;2022-12-24T06:51:02;9.77;;;2.40;;
72924;SDS011;61070;50.794;7.054;2022-12-24T06:53:28;13.18;;;2.33;;
72924;SDS011;61070;50.794;7.054;2022-12-24T06:55:59;8.75;;;2.22;;
72924;SDS011;61070;50.794;7.054;2022-12-24T06:58:25;13.13;;;2.00;;
72924;SDS011;61070;50.794;7.054;2022-12-24T07:00:51;8.45;;;2.03;;
72924;SDS011;61070;50.794;7.054;2022-12-24T07:03:16;12.18;;;2.60;;
72924;SDS011;61070;50.794;7.054;2022-12-24T07:05:41;11.65;;;2.72;;
72924;SDS011;61070;50.794;7.054;2022-12-24T07:08:07;13.82;;;2.60;;
72924;SDS011;61070;50.794;7.054;2022-12-24T07:10:33;8.57;;;1.92;;
72924;SDS011;61070;50.794;7.054;2022-12-24T07:12:58;8.85;;;1.92;;
72924;SDS011;61070;50.794;7.054;2022-12-24T07:15:23;14.15;;;2.35;;
72924;SDS011;61070;50.794;7.054;2022-12-24T07:17:48;23.48;;;4.55;;
72924;SDS011;61070;50.794;7.054;2022-12-24T07:20:14;23.67;;;4.28;;
72924;SDS011;61070;50.794;7.054;2022-12-24T07:22:39;21.38;;;4.38;;
72924;SDS011;61070;50.794;7.054;2022-12-24T07:25:05;16.20;;;4.35;;
72924;SDS011;61070;50.794;7.054;2022-12-24T07:27:30;30.17;;;4.20;;
72924;SDS011;61070;50.794;7.054;2022-12-24T07:29:56;26.10;;;3.63;;
72924;SDS011;61070;50.794;7.054;2022-12-24T07:32:21;23.67;;;4.53;;
72924;SDS011;61070;50.794;7.054;2022-12-24T07:34:46;25.45;;;3.92;;
72924;SDS011;61070;50.794;7.054;2022-12-24T07:37:11;25.88;;;3.60;;
72924;SDS011;61070;50.794;7.054;2022-12-24T07:39:37;16.30;;;4.07;;
72924;SDS011;61070;50.794;7.054;2022-12-24T07:42:02;19.73;;;4.80;;
72924;SDS011;61070;50.794;7.054;2022-12-24T07:44:30;30.02;;;4.47;;
72924;SDS011;61070;50.794;7.054;2022-12-24T07:46:55;24.63;;;4.30;;
72924;SDS011;61070;50.794;7.054;2022-12-24T07:49:21;37.30;;;9.13;;
72924;SDS011;61070;50.794;7.054;2022-12-24T07:51:46;21.45;;;5.07;;
72924;SDS011;61070;50.794;7.054;2022-12-24T07:54:11;33.03;;;7.60;;
72924;SDS011;61070;50.794;7.054;2022-12-24T07:56:36;34.92;;;7.85;;
72924;SDS011;61070;50.794;7.054;2022-12-24T07:59:02;45.00;;;8.93;;
72924;SDS011;61070;50.794;7.054;2022-12-24T08:01:27;34.17;;;5.70;;
72924;SDS011;61070;50.794;7.054;2022-12-24T08:03:52;35.13;;;8.02;;
72924;SDS011;61070;50.794;7.054;2022-12-24T08:06:19;20.13;;;5.72;;
72924;SDS011;61070;50.794;7.054;2022-12-24T08:08:45;23.33;;;5.25;;
72924;SDS011;61070;50.794;7.054;2022-12-24T08:11:10;20.33;;;4.78;;
72924;SDS011;61070;50.794;7.054;2022-12-24T08:13:36;26.83;;;5.07;;
72924;SDS011;61070;50.794;7.054;2022-12-24T08:16:01;23.25;;;4.47;;
72924;SDS011;61070;50.794;7.054;2022-12-24T08:18:26;29.17;;;5.22;;
72924;SDS011;61070;50.794;7.054;2022-12-24T08:20:52;39.03;;;5.18;;
72924;SDS011;61070;50.794;7.054;2022-12-24T08:23:17;25.38;;;3.97;;
72924;SDS011;61070;50.794;7.054;2022-12-24T08:25:43;22.67;;;4.50;;
72924;SDS011;61070;50.794;7.054;2022-12-24T08:28:10;29.75;;;4.45;;
72924;SDS011;61070;50.794;7.054;2022-12-24T08:30:35;26.67;;;4.13;;
72924;SDS011;61070;50.794;7.054;2022-12-24T08:33:01;23.48;;;5.00;;
72924;SDS011;61070;50.794;7.054;2022-12-24T08:35:26;28.13;;;5.07;;
72924;SDS011;61070;50.794;7.054;2022-12-24T08:37:52;36.13;;;4.70;;
72924;SDS011;61070;50.794;7.054;2022-12-24T08:40:17;25.77;;;4.47;;
72924;SDS011;61070;50.794;7.054;2022-12-24T08:42:43;29.58;;;4.97;;
72924;SDS011;61070;50.794;7.054;2022-12-24T08:45:08;19.02;;;3.80;;
72924;SDS011;61070;50.794;7.054;2022-12-24T08:47:35;29.50;;;6.95;;
72924;SDS011;61070;50.794;7.054;2022-12-24T08:50:01;24.80;;;4.72;;
72924;SDS011;61070;50.794;7.054;2022-12-24T08:52:26;17.23;;;3.65;;
72924;SDS011;61070;50.794;7.054;2022-12-24T08:54:51;21.73;;;3.88;;
72924;SDS011;61070;50.794;7.054;2022-12-24T08:57:16;23.95;;;4.47;;
72924;SDS011;61070;50.794;7.054;2022-12-24T08:59:42;24.42;;;4.28;;
72924;SDS011;61070;50.794;7.054;2022-12-24T09:02:07;23.65;;;4.97;;
72924;SDS011;61070;50.794;7.054;2022-12-24T09:04:33;32.58;;;4.72;;
72924;SDS011;61070;50.794;7.054;2022-12-24T09:07:03;24.55;;;4.93;;
72924;SDS011;61070;50.794;7.054;2022-12-24T09:09:29;21.83;;;4.68;;
72924;SDS011;61070;50.794;7.054;2022-12-24T09:11:54;27.63;;;4.68;;
72924;SDS011;61070;50.794;7.054;2022-12-24T09:14:19;25.58;;;3.85;;
72924;SDS011;61070;50.794;7.054;2022-12-24T09:16:45;31.50;;;5.05;;
72924;SDS011;61070;50.794;7.054;2022-12-24T09:19:10;22.20;;;3.58;;
72924;SDS011;61070;50.794;7.054;2022-12-24T09:21:35;24.00;;;4.57;;
72924;SDS011;61070;50.794;7.054;2022-12-24T09:24:02;29.08;;;4.45;;
72924;SDS011;61070;50.794;7.054;2022-12-24T09:26:27;26.63;;;4.53;;
72924;SDS011;61070;50.794;7.054;2022-12-24T09:28:54;26.92;;;4.70;;
72924;SDS011;61070;50.794;7.054;2022-12-24T09:31:21;27.33;;;5.18;;
72924;SDS011;61070;50.794;7.054;2022-12-24T09:33:49;33.80;;;4.93;;
72924;SDS011;61070;50.794;7.054;2022-12-24T09:36:15;32.40;;;4.63;;
72924;SDS011;61070;50.794;7.054;2022-12-24T09:38:41;27.27;;;4.32;;
72924;SDS011;61070;50.794;7.054;2022-12-24T09:41:50;20.25;;;4.00;;
72924;SDS011;61070;50.794;7.054;2022-12-24T09:46:58;21.70;;;4.40;;
72924;SDS011;61070;50.794;7.054;2022-12-24T09:49:31;29.33;;;3.90;;
72924;SDS011;61070;50.794;7.054;2022-12-24T09:52:05;34.40;;;5.13;;
72924;SDS011;61070;50.794;7.054;2022-12-24T09:54:35;33.40;;;5.40;;
72924;SDS011;61070;50.794;7.054;2022-12-24T09:57:07;20.73;;;4.05;;
72924;SDS011;61070;50.794;7.054;2022-12-24T09:59:41;22.70;;;4.65;;
72924;SDS011;61070;50.794;7.054;2022-12-24T10:02:13;30.42;;;4.82;;
72924;SDS011;61070;50.794;7.054;2022-12-24T10:04:40;20.45;;;4.40;;
72924;SDS011;61070;50.794;7.054;2022-12-24T10:10:00;36.83;;;5.32;;
72924;SDS011;61070;50.794;7.054;2022-12-24T10:12:52;23.27;;;4.45;;
72924;SDS011;61070;50.794;7.054;2022-12-24T10:15:31;30.52;;;5.38;;
72924;SDS011;61070;50.794;7.054;2022-12-24T10:21:12;18.23;;;4.72;;
72924;SDS011;61070;50.794;7.054;2022-12-24T10:26:24;23.58;;;4.63;;
72924;SDS011;61070;50.794;7.054;2022-12-24T10:31:24;30.23;;;5.25;;
72924;SDS011;61070;50.794;7.054;2022-12-24T10:33:54;23.90;;;5.13;;
72924;SDS011;61070;50.794;7.054;2022-12-24T10:36:24;35.05;;;4.97;;
72924;SDS011;61070;50.794;7.054;2022-12-24T10:38:52;33.33;;;5.10;;
72924;SDS011;61070;50.794;7.054;2022-12-24T10:41:18;28.75;;;5.65;;
72924;SDS011;61070;50.794;7.054;2022-12-24T10:43:44;33.03;;;6.05;;
72924;SDS011;61070;50.794;7.054;2022-12-24T10:46:27;27.85;;;4.55;;
72924;SDS011;61070;50.794;7.054;2022-12-24T10:49:06;30.40;;;4.10;;
72924;SDS011;61070;50.794;7.054;2022-12-24T10:51:39;32.95;;;4.93;;
72924;SDS011;61070;50.794;7.054;2022-12-24T10:54:13;25.60;;;4.45;;
72924;SDS011;61070;50.794;7.054;2022-12-24T10:56:55;30.35;;;4.45;;
72924;SDS011;61070;50.794;7.054;2022-12-24T11:04:29;28.20;;;4.45;;
72924;SDS011;61070;50.794;7.054;2022-12-24T11:06:57;31.48;;;4.72;;
72924;SDS011;61070;50.794;7.054;2022-12-24T11:09:31;28.08;;;4.25;;
72924;SDS011;61070;50.794;7.054;2022-12-24T11:11:59;28.25;;;4.93;;
72924;SDS011;61070;50.794;7.054;2022-12-24T11:14:29;27.58;;;4.10;;
72924;SDS011;61070;50.794;7.054;2022-12-24T11:16:58;20.40;;;5.65;;
72924;SDS011;61070;50.794;7.054;2022-12-24T11:19:26;35.72;;;7.13;;
72924;SDS011;61070;50.794;7.054;2022-12-24T11:21:59;44.63;;;6.10;;
72924;SDS011;61070;50.794;7.054;2022-12-24T11:24:29;29.52;;;6.38;;
72924;SDS011;61070;50.794;7.054;2022-12-24T11:32:17;25.07;;;4.93;;
72924;SDS011;61070;50.794;7.054;2022-12-24T11:34:44;33.25;;;4.97;;
72924;SDS011;61070;50.794;7.054;2022-12-24T11:37:20;34.72;;;5.95;;
72924;SDS011;61070;50.794;7.054;2022-12-24T11:39:57;31.45;;;4.82;;
72924;SDS011;61070;50.794;7.054;2022-12-24T11:42:28;35.33;;;5.38;;
72924;SDS011;61070;50.794;7.054;2022-12-24T11:44:57;27.00;;;5.20;;
72924;SDS011;61070;50.794;7.054;2022-12-24T11:47:32;31.05;;;4.03;;
72924;SDS011;61070;50.794;7.054;2022-12-24T11:50:17;29.08;;;4.60;;
72924;SDS011;61070;50.794;7.054;2022-12-24T12:01:13;34.42;;;4.30;;
72924;SDS011;61070;50.794;7.054;2022-12-24T12:03:50;31.40;;;4.53;;
72924;SDS011;61070;50.794;7.054;2022-12-24T12:09:26;28.65;;;4.82;;
72924;SDS011;61070;50.794;7.054;2022-12-24T12:12:40;26.13;;;5.55;;
72924;SDS011;61070;50.794;7.054;2022-12-24T12:14:49;23.63;;;4.63;;
72924;SDS011;61070;50.794;7.054;2022-12-24T12:19:54;20.85;;;4.85;;
72924;SDS011;61070;50.794;7.054;2022-12-24T12:22:32;38.30;;;6.18;;
72924;SDS011;61070;50.794;7.054;2022-12-24T12:25:03;36.83;;;6.43;;
72924;SDS011;61070;50.794;7.054;2022-12-24T12:27:45;25.75;;;4.70;;
72924;SDS011;61070;50.794;7.054;2022-12-24T12:30:14;39.08;;;6.22;;
72924;SDS011;61070;50.794;7.054;2022-12-24T12:37:52;22.48;;;4.05;;
72924;SDS011;61070;50.794;7.054;2022-12-24T12:40:20;31.52;;;5.03;;
72924;SDS011;61070;50.794;7.054;2022-12-24T12:43:02;28.10;;;4.45;;
72924;SDS011;61070;50.794;7.054;2022-12-24T12:45:42;27.75;;;3.95;;
72924;SDS011;61070;50.794;7.054;2022-12-24T12:51:21;22.33;;;4.68;;
72924;SDS011;61070;50.794;7.054;2022-12-24T12:54:04;25.88;;;4.15;;
72924;SDS011;61070;50.794;7.054;2022-12-24T12:56:39;33.20;;;4.55;;
72924;SDS011;61070;50.794;7.054;2022-12-24T12:59:31;31.52;;;5.40;;
72924;SDS011;61070;50.794;7.054;2022-12-24T13:02:21;34.08;;;4.57;;
72924;SDS011;61070;50.794;7.054;2022-12-24T13:21:53;14.95;;;3.45;;
72924;SDS011;61070;50.794;7.054;2022-12-24T13:24:20;34.55;;;6.75;;
72924;SDS011;61070;50.794;7.054;2022-12-24T13:29:54;21.52;;;5.30;;
72924;SDS011;61070;50.794;7.054;2022-12-24T13:40:00;25.52;;;4.28;;
72924;SDS011;61070;50.794;7.054;2022-12-24T13:42:51;25.45;;;4.43;;
72924;SDS011;61070;50.794;7.054;2022-12-24T13:53:00;29.92;;;8.77;;
72924;SDS011;61070;50.794;7.054;2022-12-24T13:55:27;42.13;;;9.07;;
72924;SDS011;61070;50.794;7.054;2022-12-24T13:57:57;26.70;;;5.45;;
72924;SDS011;61070;50.794;7.054;2022-12-24T14:00:29;32.20;;;8.48;;
72924;SDS011;61070;50.794;7.054;2022-12-24T14:03:19;27.67;;;7.25;;
72924;SDS011;61070;50.794;7.054;2022-12-24T14:05:47;28.55;;;6.15;;
72924;SDS011;61070;50.794;7.054;2022-12-24T14:16:08;29.95;;;6.85;;
72924;SDS011;61070;50.794;7.054;2022-12-24T14:21:43;24.60;;;5.97;;
72924;SDS011;61070;50.794;7.054;2022-12-24T14:24:16;43.22;;;11.32;;
72924;SDS011;61070;50.794;7.054;2022-12-24T14:26:51;29.85;;;7.55;;
72924;SDS011;61070;50.794;7.054;2022-12-24T14:31:56;32.88;;;5.93;;
72924;SDS011;61070;50.794;7.054;2022-12-24T14:34:22;27.67;;;4.50;;
72924;SDS011;61070;50.794;7.054;2022-12-24T14:36:49;26.25;;;6.13;;
72924;SDS011;61070;50.794;7.054;2022-12-24T14:39:22;33.00;;;8.80;;
72924;SDS011;61070;50.794;7.054;2022-12-24T14:53:15;70.60;;;13.90;;
72924;SDS011;61070;50.794;7.054;2022-12-24T14:55:50;82.22;;;21.10;;
72924;SDS011;61070;50.794;7.054;2022-12-24T15:00:43;97.50;;;28.02;;
72924;SDS011;61070;50.794;7.054;2022-12-24T15:03:12;61.33;;;15.75;;
72924;SDS011;61070;50.794;7.054;2022-12-24T15:05:39;64.85;;;17.63;;
72924;SDS011;61070;50.794;7.054;2022-12-24T15:08:11;30.65;;;9.40;;
72924;SDS011;61070;50.794;7.054;2022-12-24T15:10:40;68.07;;;26.17;;
72924;SDS011;61070;50.794;7.054;2022-12-24T15:13:21;34.35;;;9.02;;
72924;SDS011;61070;50.794;7.054;2022-12-24T15:15:52;49.67;;;15.73;;
72924;SDS011;61070;50.794;7.054;2022-12-24T15:18:20;44.10;;;10.13;;
72924;SDS011;61070;50.794;7.054;2022-12-24T15:20:48;24.17;;;6.28;;
72924;SDS011;61070;50.794;7.054;2022-12-24T15:23:17;32.58;;;8.90;;
72924;SDS011;61070;50.794;7.054;2022-12-24T15:25:49;44.38;;;8.10;;
72924;SDS011;61070;50.794;7.054;2022-12-24T15:28:18;33.67;;;8.50;;
72924;SDS011;61070;50.794;7.054;2022-12-24T15:30:47;38.05;;;6.28;;
72924;SDS011;61070;50.794;7.054;2022-12-24T15:33:12;104.43;;;34.35;;
72924;SDS011;61070;50.794;7.054;2022-12-24T15:35:50;34.63;;;8.93;;
72924;SDS011;61070;50.794;7.054;2022-12-24T15:38:35;56.53;;;13.35;;
72924;SDS011;61070;50.794;7.054;2022-12-24T15:41:05;101.25;;;31.83;;
72924;SDS011;61070;50.794;7.054;2022-12-24T15:43:38;43.10;;;10.82;;
72924;SDS011;61070;50.794;7.054;2022-12-24T15:46:04;27.80;;;7.18;;
72924;SDS011;61070;50.794;7.054;2022-12-24T15:48:30;26.35;;;7.63;;
72924;SDS011;61070;50.794;7.054;2022-12-24T15:50:57;36.83;;;7.90;;
72924;SDS011;61070;50.794;7.054;2022-12-24T15:53:29;38.70;;;9.30;;
72924;SDS011;61070;50.794;7.054;2022-12-24T15:56:05;31.38;;;7.60;;
72924;SDS011;61070;50.794;7.054;2022-12-24T15:58:42;40.17;;;9.10;;
72924;SDS011;61070;50.794;7.054;2022-12-24T16:03:36;33.57;;;9.80;;
72924;SDS011;61070;50.794;7.054;2022-12-24T16:06:04;35.38;;;10.65;;
72924;SDS011;61070;50.794;7.054;2022-12-24T16:08:35;36.50;;;11.77;;
72924;SDS011;61070;50.794;7.054;2022-12-24T16:11:06;38.28;;;12.90;;
72924;SDS011;61070;50.794;7.054;2022-12-24T16:13:35;43.90;;;13.18;;
72924;SDS011;61070;50.794;7.054;2022-12-24T16:16:05;40.95;;;14.75;;
72924;SDS011;61070;50.794;7.054;2022-12-24T16:18:35;45.58;;;15.73;;
72924;SDS011;61070;50.794;7.054;2022-12-24T16:21:02;44.58;;;13.75;;
72924;SDS011;61070;50.794;7.054;2022-12-24T16:23:44;36.70;;;11.65;;
72924;SDS011;61070;50.794;7.054;2022-12-24T16:26:12;36.67;;;10.32;;
72924;SDS011;61070;50.794;7.054;2022-12-24T16:28:37;37.38;;;10.25;;
72924;SDS011;61070;50.794;7.054;2022-12-24T16:31:02;31.80;;;11.05;;
72924;SDS011;61070;50.794;7.054;2022-12-24T16:33:28;37.53;;;9.93;;
72924;SDS011;61070;50.794;7.054;2022-12-24T16:35:54;43.22;;;11.95;;
72924;SDS011;61070;50.794;7.054;2022-12-24T16:38:20;63.35;;;27.88;;
72924;SDS011;61070;50.794;7.054;2022-12-24T16:40:46;60.90;;;30.90;;
72924;SDS011;61070;50.794;7.054;2022-12-24T16:43:11;53.72;;;20.67;;
72924;SDS011;61070;50.794;7.054;2022-12-24T16:45:58;52.30;;;17.73;;
72924;SDS011;61070;50.794;7.054;2022-12-24T16:48:30;49.15;;;15.88;;
72924;SDS011;61070;50.794;7.054;2022-12-24T16:51:00;47.05;;;17.23;;
72924;SDS011;61070;50.794;7.054;2022-12-24T16:53:25;48.13;;;16.58;;
72924;SDS011;61070;50.794;7.054;2022-12-24T16:55:50;47.28;;;14.55;;
72924;SDS011;61070;50.794;7.054;2022-12-24T16:58:17;37.83;;;14.73;;
72924;SDS011;61070;50.794;7.054;2022-12-24T17:00:43;38.10;;;14.38;;
72924;SDS011;61070;50.794;7.054;2022-12-24T17:03:09;45.13;;;12.88;;
72924;SDS011;61070;50.794;7.054;2022-12-24T17:05:36;37.22;;;11.77;;
72924;SDS011;61070;50.794;7.054;2022-12-24T17:08:02;32.85;;;12.43;;